createdAt,value
2022-12-17T00:01:43.210Z,86.99
2022-12-17T00:04:28.696Z,87.79
2022-12-17T00:07:13.996Z,86.83
2022-12-17T00:09:59.300Z,88.42
2022-12-17T00:12:52.915Z,87.49
2022-12-17T00:15:42.962Z,88.39
2022-12-17T00:18:29.769Z,87.43
2022-12-17T00:21:16.441Z,87.96
2022-12-17T00:24:02.190Z,88.23
2022-12-17T00:26:47.417Z,88.36
2022-12-17T00:29:32.582Z,88.97
2022-12-17T00:32:18.108Z,89.41
2022-12-17T00:35:04.475Z,88.71
2022-12-17T00:37:50.003Z,87.66
2022-12-17T00:40:35.806Z,87.77
2022-12-17T00:43:21.403Z,88.53
2022-12-17T00:46:06.813Z,87.45
2022-12-17T00:48:52.189Z,88.08
2022-12-17T00:51:39.083Z,88.01
2022-12-17T00:54:24.784Z,88.53
2022-12-17T00:57:10.390Z,87.59
2022-12-17T01:00:10.764Z,86.75
2022-12-17T01:03:04.937Z,87.67
2022-12-17T01:05:50.213Z,87.84
2022-12-17T01:08:38.845Z,88.19
2022-12-17T01:11:26.263Z,88.51
2022-12-17T01:14:12.170Z,89.17
2022-12-17T01:16:57.644Z,88.25
2022-12-17T01:19:43.164Z,88.21
2022-12-17T01:22:28.230Z,89.24
2022-12-17T01:25:16.270Z,88.40
2022-12-17T01:28:01.303Z,88.73
2022-12-17T01:30:46.599Z,88.48
2022-12-17T01:33:31.915Z,88.24
2022-12-17T01:36:17.326Z,88.07
2022-12-17T01:39:02.798Z,87.17
2022-12-17T01:41:49.842Z,87.02
2022-12-17T01:45:10.979Z,87.46
2022-12-17T01:48:00.624Z,86.89
2022-12-17T01:50:49.216Z,87.03
2022-12-17T01:53:37.572Z,87.02
2022-12-17T01:56:24.107Z,88.11
2022-12-17T01:59:11.397Z,87.73
2022-12-17T02:01:56.952Z,88.16
2022-12-17T02:04:42.934Z,88.11
2022-12-17T02:07:40.351Z,88.65
2022-12-17T02:10:38.215Z,88.89
2022-12-17T02:13:30.424Z,88.25
2022-12-17T02:16:20.575Z,87.81
2022-12-17T02:19:10.927Z,87.18
2022-12-17T02:21:59.457Z,87.77
2022-12-17T02:24:52.667Z,87.82
2022-12-17T02:27:41.919Z,88.02
2022-12-17T02:30:28.518Z,87.58
2022-12-17T02:33:14.128Z,87.80
2022-12-17T02:36:03.742Z,87.51
2022-12-17T02:38:50.512Z,87.63
2022-12-17T02:41:38.062Z,87.61
2022-12-17T02:44:28.105Z,87.42
2022-12-17T02:47:15.637Z,87.42
2022-12-17T02:50:00.693Z,86.61
2022-12-17T02:52:47.208Z,86.83
2022-12-17T02:55:32.551Z,86.49
2022-12-17T02:58:17.886Z,86.13
2022-12-17T03:01:04.361Z,85.97
2022-12-17T03:03:50.597Z,85.75
2022-12-17T03:06:36.031Z,86.04
2022-12-17T03:09:21.919Z,85.66
2022-12-17T03:12:07.415Z,85.89
2022-12-17T03:14:53.807Z,86.55
2022-12-17T03:17:40.508Z,86.56
2022-12-17T03:20:27.027Z,86.62
2022-12-17T03:23:12.641Z,86.41
2022-12-17T03:25:57.965Z,86.56
2022-12-17T03:28:43.197Z,86.14
2022-12-17T03:31:28.298Z,86.21
2022-12-17T03:34:14.719Z,86.28
2022-12-17T03:36:59.852Z,86.61
2022-12-17T03:39:45.075Z,86.11
2022-12-17T03:42:30.135Z,85.55
2022-12-17T03:45:15.518Z,85.25
2022-12-17T03:48:00.907Z,85.25
2022-12-17T03:50:47.796Z,85.50
2022-12-17T03:53:33.051Z,85.59
2022-12-17T03:56:18.850Z,85.75
2022-12-17T03:59:03.818Z,86.06
2022-12-17T04:01:49.185Z,85.43
2022-12-17T04:04:34.414Z,85.24
2022-12-17T04:07:29.746Z,85.38
2022-12-17T04:10:15.046Z,85.75
2022-12-17T04:13:00.357Z,85.92
2022-12-17T04:15:45.945Z,86.27
2022-12-17T04:18:31.097Z,85.95
2022-12-17T04:21:16.489Z,85.76
2022-12-17T04:24:03.410Z,84.85
2022-12-17T04:26:48.381Z,84.62
2022-12-17T04:29:33.713Z,84.94
2022-12-17T04:32:19.055Z,84.59
2022-12-17T04:35:05.281Z,85.15
2022-12-17T04:37:50.677Z,85.41
2022-12-17T04:40:37.293Z,85.46
2022-12-17T04:43:25.977Z,85.56
2022-12-17T04:46:11.480Z,85.03
2022-12-17T04:48:58.664Z,84.57
2022-12-17T04:51:44.301Z,83.73
2022-12-17T04:54:29.706Z,83.64
2022-12-17T04:57:16.386Z,84.04
2022-12-17T05:00:01.970Z,83.92
2022-12-17T05:02:47.529Z,83.93
2022-12-17T05:05:32.822Z,84.45
2022-12-17T05:08:18.184Z,83.96
2022-12-17T05:11:03.394Z,84.41
2022-12-17T05:13:50.134Z,84.36
2022-12-17T05:16:35.438Z,84.34
2022-12-17T05:19:20.874Z,84.19
2022-12-17T05:22:05.860Z,83.87
2022-12-17T05:24:52.645Z,83.51
2022-12-17T05:27:37.877Z,83.07
2022-12-17T05:30:25.575Z,83.50
2022-12-17T05:33:16.757Z,84.79
2022-12-17T05:36:02.156Z,85.05
2022-12-17T05:38:47.535Z,85.24
2022-12-17T05:41:32.624Z,84.33
2022-12-17T05:44:18.063Z,84.08
2022-12-17T05:47:04.917Z,84.57
2022-12-17T05:49:50.339Z,84.35
2022-12-17T05:52:35.495Z,84.63
2022-12-17T05:55:20.924Z,85.15
2022-12-17T05:58:07.393Z,85.24
2022-12-17T06:00:52.743Z,85.09
2022-12-17T06:03:39.811Z,85.78
2022-12-17T06:06:25.607Z,84.77
2022-12-17T06:09:11.157Z,85.23
2022-12-17T06:12:02.266Z,84.74
2022-12-17T06:14:48.067Z,84.87
2022-12-17T06:17:33.086Z,84.06
2022-12-17T06:20:19.862Z,83.37
2022-12-17T06:23:05.050Z,83.82
2022-12-17T06:25:50.414Z,84.36
2022-12-17T06:28:35.693Z,85.08
2022-12-17T06:31:21.166Z,84.87
2022-12-17T06:34:06.416Z,84.86
2022-12-17T06:36:53.144Z,85.26
2022-12-17T06:39:38.213Z,84.21
2022-12-17T06:42:23.477Z,84.03
2022-12-17T06:45:08.587Z,83.72
2022-12-17T06:47:54.143Z,83.20
2022-12-17T06:50:39.270Z,82.97
2022-12-17T06:53:26.346Z,83.39
2022-12-17T06:56:10.912Z,82.73
2022-12-17T06:58:57.111Z,83.18
2022-12-17T07:01:42.456Z,83.13
2022-12-17T07:04:28.203Z,82.64
2022-12-17T07:07:13.471Z,82.88
2022-12-17T07:10:00.867Z,81.97
2022-12-17T07:12:46.225Z,81.71
2022-12-17T07:15:32.035Z,80.67
2022-12-17T07:18:19.018Z,81.49
2022-12-17T07:21:04.994Z,81.21
2022-12-17T07:23:50.526Z,81.51
2022-12-17T07:26:37.322Z,82.75
2022-12-17T07:29:22.717Z,82.86
2022-12-17T07:32:08.034Z,82.50
2022-12-17T07:34:53.465Z,82.52
2022-12-17T07:37:38.658Z,82.10
2022-12-17T07:40:25.140Z,82.81
2022-12-17T07:43:12.259Z,83.88
2022-12-17T07:45:57.908Z,84.50
2022-12-17T07:48:43.320Z,84.02
2022-12-17T07:51:28.563Z,83.36
2022-12-17T07:54:14.072Z,85.17
2022-12-17T07:56:58.529Z,86.26
2022-12-17T07:59:45.092Z,85.62
2022-12-17T08:02:30.356Z,85.99
2022-12-17T08:05:15.911Z,85.96
2022-12-17T08:08:01.099Z,85.94
2022-12-17T08:10:46.308Z,86.51
2022-12-17T08:13:31.796Z,86.49
2022-12-17T08:16:20.524Z,86.33
2022-12-17T08:19:05.643Z,86.22
2022-12-17T08:21:51.070Z,86.37
2022-12-17T08:24:36.632Z,87.64
2022-12-17T08:27:22.066Z,88.70
2022-12-17T08:30:07.161Z,87.91
2022-12-17T08:32:53.738Z,87.31
2022-12-17T08:35:38.872Z,88.14
2022-12-17T08:38:24.892Z,87.88
2022-12-17T08:41:10.134Z,87.79
2022-12-17T08:43:55.432Z,88.57
2022-12-17T08:46:40.680Z,87.58
2022-12-17T08:49:23.644Z,87.55
2022-12-17T08:52:09.025Z,87.05
2022-12-17T08:54:54.482Z,87.06
2022-12-17T08:57:39.905Z,87.05
2022-12-17T09:00:27.089Z,86.93
2022-12-17T09:03:15.566Z,87.42
2022-12-17T09:06:02.123Z,86.94
2022-12-17T09:09:02.198Z,88.06
2022-12-17T09:11:47.336Z,88.22
2022-12-17T09:14:32.870Z,88.00
2022-12-17T09:17:18.308Z,87.87
2022-12-17T09:20:04.009Z,87.04
2022-12-17T09:22:50.545Z,86.66
2022-12-17T09:25:35.809Z,86.56
2022-12-17T09:28:22.270Z,85.45
2022-12-17T09:31:07.761Z,85.89
2022-12-17T09:33:53.185Z,86.78
2022-12-17T09:36:38.560Z,86.90
2022-12-17T09:39:26.698Z,85.91
2022-12-17T09:42:18.567Z,85.28
2022-12-17T09:45:09.496Z,86.63
2022-12-17T09:48:10.444Z,86.00
2022-12-17T09:50:55.921Z,86.37
2022-12-17T09:53:55.483Z,85.67
2022-12-17T09:56:45.002Z,86.13
2022-12-17T09:59:38.524Z,84.65
2022-12-17T10:02:37.083Z,84.76
2022-12-17T10:05:25.950Z,83.71
2022-12-17T10:08:16.465Z,84.21
2022-12-17T10:11:08.079Z,84.51
2022-12-17T10:13:54.502Z,83.95
2022-12-17T10:16:44.708Z,84.36
2022-12-17T10:19:35.782Z,83.38
2022-12-17T10:22:28.717Z,82.66
2022-12-17T10:25:14.103Z,83.09
2022-12-17T10:27:59.269Z,82.31
2022-12-17T10:30:46.934Z,83.41
2022-12-17T10:33:37.619Z,82.38
2022-12-17T10:36:20.682Z,82.82
2022-12-17T10:39:12.283Z,82.56
2022-12-17T10:42:00.346Z,83.11
2022-12-17T10:44:47.229Z,82.73
2022-12-17T10:47:35.407Z,82.68
2022-12-17T10:50:22.792Z,83.24
2022-12-17T10:53:08.169Z,80.55
2022-12-17T10:55:54.120Z,79.94
2022-12-17T10:58:41.581Z,80.66
2022-12-17T11:01:31.147Z,81.51
2022-12-17T11:04:17.761Z,81.59
2022-12-17T11:07:05.643Z,82.09
2022-12-17T11:10:11.256Z,81.57
2022-12-17T11:13:01.452Z,81.58
2022-12-17T11:15:54.445Z,80.37
2022-12-17T11:18:44.894Z,80.70
2022-12-17T11:21:38.100Z,80.59
2022-12-17T11:24:29.390Z,80.25
2022-12-17T11:27:15.417Z,80.03
2022-12-17T11:30:00.785Z,81.46
2022-12-17T11:33:02.589Z,82.74
2022-12-17T11:35:54.888Z,82.80
2022-12-17T11:38:51.181Z,82.71
2022-12-17T11:41:46.595Z,82.06
2022-12-17T11:44:46.318Z,80.93
2022-12-17T11:47:41.846Z,79.57
2022-12-17T11:50:42.732Z,82.22
2022-12-17T11:53:40.856Z,79.76
2022-12-17T11:56:34.865Z,80.73
2022-12-17T11:59:26.721Z,81.76
2022-12-17T12:02:20.540Z,80.78
2022-12-17T12:05:26.538Z,81.06
2022-12-17T12:08:22.368Z,81.37
2022-12-17T12:11:16.589Z,82.48
2022-12-17T12:14:12.904Z,81.69
2022-12-17T12:17:08.513Z,81.17
2022-12-17T12:20:01.590Z,81.24
2022-12-17T12:22:52.081Z,79.93
2022-12-17T12:25:45.398Z,81.62
2022-12-17T12:28:41.018Z,81.50
2022-12-17T12:31:39.719Z,82.34
2022-12-17T12:34:30.829Z,81.64
2022-12-17T12:37:19.294Z,81.23
2022-12-17T12:40:12.798Z,82.77
2022-12-17T12:43:04.405Z,83.37
2022-12-17T12:46:01.858Z,82.77
2022-12-17T12:49:00.558Z,81.31
2022-12-17T12:51:47.882Z,80.59
2022-12-17T12:54:43.640Z,79.82
2022-12-17T12:57:46.026Z,80.80
2022-12-17T13:00:43.663Z,81.40
2022-12-17T13:03:39.932Z,82.55
2022-12-17T13:06:09.666Z,82.82
2022-12-17T13:08:38.041Z,84.01
2022-12-17T13:11:31.163Z,84.73
2022-12-17T13:14:06.718Z,84.17
2022-12-17T13:16:42.587Z,83.46
2022-12-17T13:19:21.546Z,83.35
2022-12-17T13:21:50.533Z,83.59
2022-12-17T13:24:25.938Z,83.14
2022-12-17T13:26:53.837Z,84.25
2022-12-17T13:29:28.201Z,84.12
2022-12-17T13:32:09.353Z,83.41
2022-12-17T13:34:50.315Z,83.55
2022-12-17T13:37:28.967Z,82.55
2022-12-17T13:40:05.845Z,83.70
2022-12-17T13:42:36.467Z,82.03
2022-12-17T13:45:04.346Z,81.72
2022-12-17T13:47:34.972Z,80.77
2022-12-17T13:50:36.256Z,80.92
2022-12-17T13:53:13.392Z,82.08
2022-12-17T13:55:41.275Z,81.56
2022-12-17T13:58:22.213Z,81.84
2022-12-17T14:00:49.855Z,83.11
2022-12-17T14:03:37.114Z,83.59
2022-12-17T14:06:12.634Z,84.17
2022-12-17T14:08:42.855Z,84.53
2022-12-17T14:11:30.243Z,84.06
2022-12-17T14:13:58.112Z,83.59
2022-12-17T14:16:25.927Z,83.06
2022-12-17T14:18:57.227Z,83.53
2022-12-17T14:21:27.072Z,84.39
2022-12-17T14:23:57.891Z,83.78
2022-12-17T14:26:25.502Z,84.49
2022-12-17T14:28:55.351Z,84.06
2022-12-17T14:31:28.595Z,84.43
2022-12-17T14:34:07.411Z,85.48
2022-12-17T14:36:37.798Z,84.87
2022-12-17T14:39:16.050Z,85.94
2022-12-17T14:42:01.942Z,85.82
2022-12-17T14:44:31.142Z,85.35
2022-12-17T14:47:10.972Z,85.90
2022-12-17T14:49:53.688Z,86.49
2022-12-17T14:52:28.693Z,86.64
2022-12-17T14:54:57.715Z,87.06
2022-12-17T14:57:25.922Z,87.73
2022-12-17T14:59:53.638Z,88.05
2022-12-17T15:02:26.166Z,87.40
2022-12-17T15:04:57.468Z,86.57
2022-12-17T15:07:27.373Z,86.65
2022-12-17T15:09:58.579Z,86.21
2022-12-17T15:12:26.530Z,85.84
2022-12-17T15:14:55.358Z,86.45
2022-12-17T15:17:22.962Z,86.45
2022-12-17T15:19:55.906Z,87.39
2022-12-17T15:22:24.278Z,87.20
2022-12-17T15:24:51.898Z,86.44
2022-12-17T15:27:23.259Z,88.13
2022-12-17T15:29:50.829Z,87.84
2022-12-17T15:32:19.864Z,87.44
2022-12-17T15:34:47.934Z,87.61
2022-12-17T15:37:20.959Z,87.95
2022-12-17T15:39:52.009Z,87.85
2022-12-17T15:42:38.651Z,88.64
2022-12-17T15:45:07.439Z,88.37
2022-12-17T15:47:35.088Z,87.29
2022-12-17T15:50:03.127Z,86.94
2022-12-17T15:52:30.837Z,86.62
2022-12-17T15:54:58.731Z,85.93
2022-12-17T15:57:27.726Z,86.47
2022-12-17T15:59:55.307Z,85.79
2022-12-17T16:02:23.210Z,86.31
2022-12-17T16:04:50.943Z,87.47
2022-12-17T16:07:18.516Z,88.31
2022-12-17T16:09:46.192Z,87.85
2022-12-17T16:12:13.789Z,87.99
2022-12-17T16:14:42.852Z,87.66
2022-12-17T16:17:10.532Z,87.75
2022-12-17T16:19:38.224Z,87.59
2022-12-17T16:22:06.024Z,88.01
2022-12-17T16:24:33.961Z,87.53
2022-12-17T16:27:04.509Z,87.43
2022-12-17T16:29:32.662Z,86.73
2022-12-17T16:32:02.078Z,86.98
2022-12-17T16:34:30.034Z,87.85
2022-12-17T16:36:57.931Z,87.81
2022-12-17T16:39:25.616Z,88.28
2022-12-17T16:41:53.251Z,87.92
2022-12-17T16:44:20.918Z,86.90
2022-12-17T16:46:48.581Z,86.05
2022-12-17T16:49:19.405Z,85.97
2022-12-17T16:51:49.039Z,86.16
2022-12-17T16:54:19.247Z,86.41
2022-12-17T16:56:48.142Z,86.67
2022-12-17T16:59:17.119Z,85.80
2022-12-17T17:01:49.007Z,86.71
2022-12-17T17:04:20.897Z,86.57
2022-12-17T17:06:51.468Z,86.74
2022-12-17T17:09:19.979Z,86.42
2022-12-17T17:11:51.850Z,84.82
2022-12-17T17:14:19.987Z,85.30
2022-12-17T17:16:47.607Z,85.38
2022-12-17T17:19:15.919Z,85.71
2022-12-17T17:21:50.552Z,85.82
2022-12-17T17:24:21.937Z,86.35
2022-12-17T17:26:51.836Z,86.68
2022-12-17T17:29:19.976Z,86.09
2022-12-17T17:34:35.270Z,85.09
2022-12-17T17:37:04.374Z,84.89
2022-12-17T17:39:33.290Z,85.36
2022-12-17T17:42:01.159Z,86.42
2022-12-17T17:44:29.019Z,85.62
2022-12-17T17:46:56.827Z,86.30
2022-12-17T17:49:24.545Z,86.10
2022-12-17T17:54:41.275Z,88.29
2022-12-17T17:57:09.768Z,87.69
2022-12-17T17:59:39.139Z,87.22
2022-12-17T18:02:06.780Z,86.63
2022-12-17T18:04:34.398Z,87.14
2022-12-17T18:07:24.125Z,86.96
2022-12-17T18:09:50.945Z,87.24
2022-12-17T18:12:36.070Z,87.50
2022-12-17T18:15:19.107Z,87.38
2022-12-17T18:17:48.187Z,87.54
2022-12-17T18:20:16.613Z,86.70
2022-12-17T18:22:45.963Z,85.98
2022-12-17T18:25:15.849Z,85.93
2022-12-17T18:27:43.708Z,86.18
2022-12-17T18:30:11.955Z,86.39
2022-12-17T18:32:39.543Z,86.14
2022-12-17T18:35:08.417Z,86.54
2022-12-17T18:37:36.079Z,86.45
2022-12-17T18:40:03.936Z,86.42
2022-12-17T18:42:50.433Z,86.18
2022-12-17T18:45:18.229Z,86.27
2022-12-17T18:47:45.883Z,86.06
2022-12-17T18:50:13.951Z,86.92
2022-12-17T18:52:41.775Z,86.50
2022-12-17T18:55:11.088Z,87.48
2022-12-17T18:57:40.225Z,88.27
2022-12-17T19:00:09.855Z,88.80
2022-12-17T19:02:37.748Z,88.80
2022-12-17T19:05:05.856Z,88.73
2022-12-17T19:07:33.727Z,88.01
2022-12-17T19:10:03.848Z,87.70
2022-12-17T19:12:31.511Z,87.12
2022-12-17T19:15:00.563Z,86.47
2022-12-17T19:17:28.159Z,86.15
2022-12-17T19:19:55.862Z,86.66
2022-12-17T19:22:23.614Z,86.98
2022-12-17T19:24:51.312Z,86.87
2022-12-17T19:27:19.046Z,87.34
2022-12-17T19:29:49.776Z,87.39
2022-12-17T19:32:19.356Z,87.64
2022-12-17T19:34:47.105Z,86.64
2022-12-17T19:37:14.873Z,86.58
2022-12-17T19:39:42.672Z,86.59
2022-12-17T19:42:24.439Z,89.36
2022-12-17T19:44:53.118Z,89.87
2022-12-17T19:47:23.116Z,90.29
2022-12-17T19:49:51.100Z,91.10
2022-12-17T19:52:18.829Z,90.85
2022-12-17T19:54:46.560Z,89.72
2022-12-17T19:57:14.181Z,88.80
2022-12-17T19:59:41.761Z,89.27
2022-12-17T20:02:10.914Z,88.72
2022-12-17T20:04:40.182Z,89.01
2022-12-17T20:07:07.859Z,88.99
2022-12-17T20:09:35.477Z,89.16
2022-12-17T20:12:03.234Z,88.87
2022-12-17T20:14:31.520Z,89.13
2022-12-17T20:17:01.222Z,88.90
2022-12-17T20:19:31.209Z,88.13
2022-12-17T20:22:02.374Z,87.81
2022-12-17T20:24:31.765Z,87.65
2022-12-17T20:27:00.607Z,87.59
2022-12-17T20:29:28.939Z,87.60
2022-12-17T20:31:57.105Z,88.08
2022-12-17T20:34:25.446Z,88.03
2022-12-17T20:36:54.089Z,88.44
2022-12-17T20:39:27.021Z,88.58
2022-12-17T20:41:56.083Z,88.21
2022-12-17T20:44:23.889Z,88.20
2022-12-17T20:46:51.773Z,88.43
2022-12-17T20:49:19.622Z,87.93
2022-12-17T20:51:47.270Z,87.64
2022-12-17T20:54:14.978Z,88.55
2022-12-17T20:56:43.954Z,88.93
2022-12-17T20:59:15.839Z,89.48
2022-12-17T21:01:44.332Z,89.02
2022-12-17T21:04:13.317Z,89.23
2022-12-17T21:06:42.334Z,88.65
2022-12-17T21:09:10.183Z,88.34
2022-12-17T21:11:39.450Z,88.08
2022-12-17T21:14:11.615Z,87.84
2022-12-17T21:16:42.127Z,87.39
2022-12-17T21:19:12.189Z,87.48
2022-12-17T21:21:39.913Z,86.77
2022-12-17T21:24:08.415Z,86.80
2022-12-17T21:26:38.163Z,87.08
2022-12-17T21:29:08.956Z,86.71
2022-12-17T21:31:40.373Z,86.98
2022-12-17T21:34:11.557Z,86.63
2022-12-17T21:36:40.001Z,86.68
2022-12-17T21:39:09.820Z,86.98
2022-12-17T21:41:44.632Z,86.42
2022-12-17T21:44:15.357Z,86.59
2022-12-17T21:46:43.708Z,86.65
2022-12-17T21:49:17.866Z,87.36
2022-12-17T21:51:45.777Z,86.88
2022-12-17T21:54:19.227Z,87.11
2022-12-17T21:56:47.418Z,86.97
2022-12-17T21:59:16.553Z,86.72
2022-12-17T22:01:44.612Z,86.85
2022-12-17T22:04:12.496Z,86.82
2022-12-17T22:06:47.252Z,86.40
2022-12-17T22:09:28.147Z,87.34
2022-12-17T22:12:21.971Z,87.24
2022-12-17T22:14:51.067Z,87.19
2022-12-17T22:17:18.670Z,87.71
2022-12-17T22:19:46.341Z,87.98
2022-12-17T22:22:13.990Z,87.41
2022-12-17T22:24:41.584Z,87.49
2022-12-17T22:27:09.697Z,87.72
2022-12-17T22:29:55.967Z,87.91
2022-12-17T22:32:42.284Z,88.21
2022-12-17T22:35:49.441Z,87.80
2022-12-17T22:40:55.404Z,88.14
2022-12-17T22:44:31.775Z,88.49
2022-12-17T22:44:43.760Z,88.90
2022-12-17T22:46:20.868Z,88.96
2022-12-17T22:48:50.010Z,89.05
2022-12-17T22:51:26.948Z,88.43
2022-12-17T22:54:02.360Z,88.91
2022-12-17T22:57:11.799Z,88.67
2022-12-17T22:59:19.494Z,88.76
2022-12-17T23:01:47.262Z,89.26
2022-12-17T23:04:19.336Z,88.67
2022-12-17T23:06:47.468Z,88.52
2022-12-17T23:09:18.159Z,88.70
2022-12-17T23:11:46.451Z,89.01
2022-12-17T23:14:14.084Z,88.90
2022-12-17T23:16:41.940Z,88.79
2022-12-17T23:19:10.062Z,89.64
2022-12-17T23:21:39.199Z,89.28
2022-12-17T23:24:07.787Z,89.21
2022-12-17T23:26:37.752Z,88.99
2022-12-17T23:29:10.331Z,88.67
2022-12-17T23:31:41.032Z,88.86
2022-12-17T23:34:09.406Z,88.40
2022-12-17T23:36:38.879Z,88.14
2022-12-17T23:39:06.712Z,88.58
2022-12-17T23:41:34.398Z,88.31
2022-12-17T23:44:02.159Z,88.44
2022-12-17T23:46:31.475Z,88.38
2022-12-17T23:48:59.558Z,88.36
2022-12-17T23:51:28.107Z,87.98
2022-12-17T23:53:57.147Z,87.42
2022-12-17T23:56:26.385Z,87.92
2022-12-17T23:58:56.708Z,88.04
